Time;durP1;ratioP1;P1;durP2;ratioP2;P2;SDS_P1;SDS_P2;PMS_P1;PMS_P2;Temp;Humidity;BMP_temperature;BMP_pressure;BME280_temperature;BME280_humidity;BME280_pressure;Samples;Min_cycle;Max_cycle;Signal;HPM_P1;HPM_P2
2023/05/24 00:00:21;;;;;;;9.97;1.90;;;;;;;11.45;78.70;101294.44;5154848;27;20434;-69
2023/05/24 00:02:48;;;;;;;10.40;2.17;;;;;;;11.55;76.71;101288.06;5155081;27;20857;-69
2023/05/24 00:05:15;;;;;;;7.60;2.00;;;;;;;11.54;76.18;101305.47;5155014;27;20477;-69
2023/05/24 00:07:43;;;;;;;8.57;2.23;;;;;;;11.52;75.92;101296.81;5155112;27;20813;-68
2023/05/24 00:10:11;;;;;;;9.83;1.67;;;;;;;11.58;75.23;101301.06;5155084;27;20484;-70
2023/05/24 00:12:38;;;;;;;11.43;2.20;;;;;;;11.43;75.16;101303.97;5155166;27;20477;-72
2023/05/24 00:15:05;;;;;;;8.80;1.63;;;;;;;11.49;75.10;101300.91;5154617;27;21018;-70
2023/05/24 00:17:33;;;;;;;6.53;1.40;;;;;;;11.47;77.01;101302.31;5154929;27;20434;-71
2023/05/24 00:20:00;;;;;;;7.73;2.30;;;;;;;11.43;76.89;101307.50;5154573;27;20445;-71
2023/05/24 00:22:26;;;;;;;5.63;1.13;;;;;;;11.47;77.21;101305.81;5154644;27;20441;-71
2023/05/24 00:24:54;;;;;;;20.70;2.10;;;;;;;11.64;75.56;101305.31;5154973;27;20508;-71
2023/05/24 00:27:21;;;;;;;9.37;2.07;;;;;;;11.58;76.51;101309.22;5154882;27;20442;-71
2023/05/24 00:29:48;;;;;;;8.53;2.17;;;;;;;11.63;76.26;101307.22;5154890;27;20434;-71
2023/05/24 00:32:14;;;;;;;6.77;1.27;;;;;;;11.71;76.68;101305.78;5154497;27;21047;-71
2023/05/24 00:34:41;;;;;;;7.70;1.60;;;;;;;11.77;76.69;101307.34;5154361;27;20464;-71
2023/05/24 00:37:08;;;;;;;7.40;1.57;;;;;;;11.81;76.11;101308.38;5154838;27;20437;-71
2023/05/24 00:39:34;;;;;;;8.20;1.40;;;;;;;11.82;77.00;101304.59;5154387;27;20953;-71
2023/05/24 00:42:02;;;;;;;6.90;1.60;;;;;;;11.82;76.22;101304.59;5154487;27;20802;-71
2023/05/24 00:44:29;;;;;;;8.20;1.93;;;;;;;11.84;76.80;101299.69;5154221;27;21086;-71
2023/05/24 00:46:56;;;;;;;6.20;1.50;;;;;;;11.88;76.69;101299.09;5157659;27;20438;-71
2023/05/24 00:49:23;;;;;;;5.90;1.60;;;;;;;11.88;76.18;101299.91;5158809;27;20538;-71
2023/05/24 00:51:51;;;;;;;9.00;1.80;;;;;;;11.78;76.72;101298.13;5158787;27;20473;-71
2023/05/24 00:54:17;;;;;;;5.93;1.50;;;;;;;11.70;77.22;101301.47;5158686;27;20882;-71
2023/05/24 00:56:44;;;;;;;6.13;1.33;;;;;;;11.77;77.59;101301.91;5158284;27;20638;-71
2023/05/24 00:59:13;;;;;;;8.07;1.90;;;;;;;11.79;77.95;101307.88;5158652;27;20439;-71
2023/05/24 01:01:40;;;;;;;6.23;1.33;;;;;;;11.75;79.67;101298.69;5158583;27;20473;-71
2023/05/24 01:04:07;;;;;;;6.60;1.60;;;;;;;11.81;78.12;101302.94;5158448;27;20493;-71
2023/05/24 01:06:43;;;;;;;5.80;1.40;;;;;;;11.81;79.56;101313.78;5158439;27;20430;-72
2023/05/24 01:09:23;;;;;;;6.80;1.37;;;;;;;11.78;78.31;101310.88;5158453;27;20421;-71
2023/05/24 01:12:08;;;;;;;12.17;1.70;;;;;;;11.75;79.04;101304.13;5158042;27;20422;-71
2023/05/24 01:14:44;;;;;;;5.80;1.63;;;;;;;11.77;78.34;101301.91;5158345;27;20905;-71
2023/05/24 01:17:19;;;;;;;18.50;2.03;;;;;;;11.73;78.17;101298.19;5158390;27;20509;-71
2023/05/24 01:19:56;;;;;;;7.17;1.50;;;;;;;11.77;78.35;101307.34;5158317;27;20428;-71
2023/05/24 01:22:51;;;;;;;19.43;1.43;;;;;;;11.77;78.35;101307.34;5158276;27;20426;-71
2023/05/24 01:25:36;;;;;;;5.10;1.20;;;;;;;11.78;78.79;101308.97;5157981;27;20529;-71
2023/05/24 01:28:05;;;;;;;6.47;1.40;;;;;;;11.72;79.19;101304.69;5158247;27;20433;-71
2023/05/24 01:30:32;;;;;;;6.50;1.40;;;;;;;11.70;78.86;101308.81;5158062;27;20441;-71
2023/05/24 01:32:59;;;;;;;14.03;1.87;;;;;;;11.73;78.28;101306.31;5157725;27;20492;-71
2023/05/24 01:35:26;;;;;;;9.43;1.73;;;;;;;11.67;78.94;101302.03;5157956;27;20520;-71
2023/05/24 01:37:52;;;;;;;6.13;1.23;;;;;;;11.63;79.54;101320.81;5157929;27;20540;-71
2023/05/24 01:40:19;;;;;;;5.37;1.30;;;;;;;11.68;79.20;101309.06;5157977;27;20811;-71
2023/05/24 01:42:53;;;;;;;13.87;2.30;;;;;;;11.72;78.80;101307.41;5157461;27;20429;-71
2023/05/24 01:45:29;;;;;;;5.97;1.80;;;;;;;11.77;78.69;101312.75;5157361;27;21061;-71
2023/05/24 01:48:04;;;;;;;10.70;1.80;;;;;;;11.74;78.83;101320.69;5157788;27;20521;-72
2023/05/24 01:50:32;;;;;;;7.93;1.73;;;;;;;11.77;77.65;101307.34;5157752;27;20471;-70
2023/05/24 01:53:04;;;;;;;5.50;1.40;;;;;;;11.72;78.64;101315.53;5157822;27;20517;-71
2023/05/24 01:55:33;;;;;;;9.60;1.53;;;;;;;11.73;80.14;101305.50;5157159;27;20482;-71
2023/05/24 01:58:03;;;;;;;6.63;1.80;;;;;;;11.67;78.53;101318.31;5156197;27;21033;-71
2023/05/24 02:00:32;;;;;;;10.00;1.60;;;;;;;11.74;79.05;101315.28;5157452;27;20873;-71
2023/05/24 02:03:00;;;;;;;8.13;1.60;;;;;;;11.79;79.70;101304.34;5157121;27;20437;-71
2023/05/24 02:05:27;;;;;;;5.83;1.47;;;;;;;11.82;78.98;101306.47;5157036;27;20897;-71
2023/05/24 02:07:54;;;;;;;8.43;1.60;;;;;;;11.82;79.40;101315.47;5157014;27;20438;-70
2023/05/24 02:10:20;;;;;;;19.33;2.27;;;;;;;11.83;78.44;101313.56;5156980;27;20951;-70
2023/05/24 02:12:47;;;;;;;6.47;1.07;;;;;;;11.75;79.13;101304.13;5157259;27;20884;-70
2023/05/24 02:15:14;;;;;;;5.80;1.60;;;;;;;11.71;79.29;101313.13;5157160;27;20456;-70
2023/05/24 02:17:42;;;;;;;9.23;1.53;;;;;;;11.76;78.44;101305.72;5156786;27;20931;-70
2023/05/24 02:20:12;;;;;;;11.73;2.03;;;;;;;11.70;78.97;101309.63;5157026;27;20463;-70
2023/05/24 02:22:38;;;;;;;5.07;1.03;;;;;;;11.70;78.51;101316.94;5157084;27;20477;-70
2023/05/24 02:25:06;;;;;;;9.27;1.67;;;;;;;11.65;78.98;101317.00;5156601;27;20549;-70
2023/05/24 02:27:33;;;;;;;7.43;1.37;;;;;;;11.67;78.34;101317.53;5157004;27;20881;-71
2023/05/24 02:30:00;;;;;;;7.70;1.60;;;;;;;11.74;78.60;101316.06;5156553;27;20444;-72
2023/05/24 02:32:26;;;;;;;7.40;2.07;;;;;;;11.71;80.59;101321.28;5156831;27;20524;-72
2023/05/24 02:34:54;;;;;;;5.90;1.37;;;;;;;11.69;79.91;101315.34;5156687;27;20553;-72
2023/05/24 02:37:21;;;;;;;10.40;1.83;;;;;;;11.61;81.22;101314.88;5156576;27;20460;-72
2023/05/24 02:39:48;;;;;;;14.67;1.63;;;;;;;11.65;80.32;101309.69;5156357;27;20809;-72
2023/05/24 02:42:15;;;;;;;9.07;1.80;;;;;;;11.64;80.46;101313.47;5156683;27;20473;-72
2023/05/24 02:44:42;;;;;;;8.10;1.80;;;;;;;11.54;79.74;101308.16;5156443;27;20946;-71
2023/05/24 02:47:08;;;;;;;6.30;1.53;;;;;;;11.45;81.41;101304.47;5156579;27;20441;-72
2023/05/24 02:49:35;;;;;;;4.93;1.20;;;;;;;11.48;81.57;101314.75;5156495;27;20433;-72
2023/05/24 02:52:03;;;;;;;10.60;1.97;;;;;;;11.55;81.70;101318.75;5156125;27;20950;-72
2023/05/24 02:54:30;;;;;;;7.27;1.60;;;;;;;11.60;81.16;101313.25;5155823;27;20461;-72
2023/05/24 02:56:57;;;;;;;7.90;1.43;;;;;;;11.64;80.23;101318.91;5156486;27;20465;-72
2023/05/24 02:59:24;;;;;;;7.23;1.73;;;;;;;11.62;80.59;101315.69;5156006;27;20438;-72
2023/05/24 03:01:50;;;;;;;9.80;1.37;;;;;;;11.64;79.87;101316.19;5156242;27;20517;-72
2023/05/24 03:04:17;;;;;;;5.10;1.20;;;;;;;11.61;80.50;101312.16;5156152;27;20468;-72
2023/05/24 03:06:44;;;;;;;9.70;1.30;;;;;;;11.66;79.92;101307.78;5156048;27;20513;-72
2023/05/24 03:09:12;;;;;;;7.33;1.70;;;;;;;11.60;80.34;101309.75;5156036;27;20811;-72
2023/05/24 03:11:39;;;;;;;7.67;2.07;;;;;;;11.64;78.54;101313.47;5156321;27;20445;-71
2023/05/24 03:14:08;;;;;;;19.43;2.00;;;;;;;11.62;79.36;101307.53;5156053;27;20545;-72
2023/05/24 03:16:35;;;;;;;15.43;2.27;;;;;;;11.63;78.56;101309.16;5156006;27;20533;-72
2023/05/24 03:19:02;;;;;;;9.17;1.67;;;;;;;11.53;79.16;101314.69;5155943;27;20445;-72
2023/05/24 03:21:28;;;;;;;9.17;1.60;;;;;;;11.47;78.84;101310.44;5155508;27;20809;-72
2023/05/24 03:23:55;;;;;;;5.63;1.40;;;;;;;11.41;79.95;101312.38;5155778;27;20453;-71
2023/05/24 03:26:23;;;;;;;4.97;1.10;;;;;;;11.37;79.34;101314.84;5155372;27;21077;-72
2023/05/24 03:28:51;;;;;;;11.87;2.60;;;;;;;11.34;79.83;101314.66;5155525;27;20513;-72
2023/05/24 03:31:19;;;;;;;6.70;1.00;;;;;;;11.24;80.15;101325.59;5155734;27;20522;-72
2023/05/24 03:33:46;;;;;;;18.10;1.63;;;;;;;11.36;79.37;101315.16;5155547;27;20453;-71
2023/05/24 03:36:13;;;;;;;11.60;2.33;;;;;;;11.35;79.73;101319.78;5155598;27;20425;-71
2023/05/24 03:38:39;;;;;;;6.30;1.23;;;;;;;11.39;80.16;101316.50;5155216;27;20878;-71
2023/05/24 03:41:06;;;;;;;7.13;1.77;;;;;;;11.41;79.87;101315.09;5155471;27;20480;-72
2023/05/24 03:46:01;;;;;;;13.13;2.23;;;;;;;11.41;79.88;101325.94;5031669;28;20490;-71
2023/05/24 03:48:28;;;;;;;11.40;1.73;;;;;;;11.47;78.94;101324.81;5033647;28;20522;-68
2023/05/24 03:50:55;;;;;;;9.50;2.53;;;;;;;11.53;77.78;101333.69;5033397;28;20474;-69
2023/05/24 03:53:21;;;;;;;12.43;1.83;;;;;;;11.48;77.93;101328.34;5033637;28;20443;-70
2023/05/24 03:55:48;;;;;;;11.47;1.70;;;;;;;11.45;78.18;101329.69;5033290;28;20471;-69
2023/05/24 03:58:14;;;;;;;8.53;1.80;;;;;;;11.40;78.36;101335.19;5033876;28;20431;-71
2023/05/24 04:00:41;;;;;;;9.20;2.10;;;;;;;11.32;79.43;101331.19;5033521;28;20514;-69
2023/05/24 04:03:09;;;;;;;15.83;2.20;;;;;;;11.33;79.60;101329.28;5033539;28;20542;-70
2023/05/24 04:05:36;;;;;;;10.17;2.10;;;;;;;11.45;78.82;101332.41;5033095;28;20483;-70
2023/05/24 04:08:03;;;;;;;6.37;2.00;;;;;;;11.51;78.35;101341.28;5033167;28;20941;-71
2023/05/24 04:10:29;;;;;;;7.00;1.77;;;;;;;11.50;78.39;101334.25;5033463;28;20481;-70
2023/05/24 04:12:57;;;;;;;17.53;1.90;;;;;;;11.52;78.30;101334.81;5033523;28;20455;-70
2023/05/24 04:15:24;;;;;;;8.10;1.40;;;;;;;11.47;78.90;101337.56;5033826;28;20474;-70
2023/05/24 04:17:53;;;;;;;13.10;1.60;;;;;;;11.52;77.66;101334.81;5033335;28;20451;-72
2023/05/24 04:20:22;;;;;;;9.57;2.00;;;;;;;11.48;77.58;101342.69;5032832;28;20447;-71
2023/05/24 04:22:49;;;;;;;5.90;1.37;;;;;;;11.43;77.89;101336.53;5033218;28;20451;-71
2023/05/24 04:25:16;;;;;;;9.93;2.10;;;;;;;11.41;77.53;101336.00;5033146;28;20622;-71
2023/05/24 04:27:43;;;;;;;8.50;1.90;;;;;;;11.39;77.39;101332.78;5032945;28;20538;-71
2023/05/24 04:30:10;;;;;;;12.90;2.23;;;;;;;11.33;78.69;101346.41;5033644;28;20447;-70
2023/05/24 04:32:39;;;;;;;15.90;3.07;;;;;;;11.37;78.66;101339.28;5035574;28;20497;-70
2023/05/24 04:35:06;;;;;;;8.83;2.30;;;;;;;11.36;78.83;101345.78;5033144;28;20517;-71
2023/05/24 04:37:34;;;;;;;9.40;2.10;;;;;;;11.38;77.65;101350.97;5033160;28;20493;-71
2023/05/24 04:40:03;;;;;;;13.23;2.57;;;;;;;11.37;77.64;101362.88;5032785;28;20455;-71
2023/05/24 04:42:31;;;;;;;11.47;2.10;;;;;;;11.41;77.07;101344.94;5032720;28;20443;-71
2023/05/24 04:44:58;;;;;;;11.53;2.20;;;;;;;11.40;78.44;101351.47;5032550;28;20475;-72
2023/05/24 04:47:25;;;;;;;8.80;2.40;;;;;;;11.45;77.61;101353.31;5033110;28;20505;-72
2023/05/24 04:49:52;;;;;;;7.00;1.57;;;;;;;11.49;77.03;101349.72;5033138;28;20467;-71
2023/05/24 04:52:19;;;;;;;9.50;1.90;;;;;;;11.53;76.53;101358.91;5033049;28;20550;-73
2023/05/24 04:54:47;;;;;;;11.67;2.10;;;;;;;11.57;76.74;101370.00;5032740;28;20479;-73
2023/05/24 04:57:13;;;;;;;10.00;2.50;;;;;;;11.58;75.96;101371.63;5033047;28;20541;-69
2023/05/24 04:59:40;;;;;;;11.00;1.83;;;;;;;11.52;76.37;101378.22;5032889;28;20449;-72
2023/05/24 05:02:06;;;;;;;9.17;2.40;;;;;;;11.59;77.04;101375.94;5032641;28;20538;-70
2023/05/24 05:04:33;;;;;;;9.10;2.00;;;;;;;11.69;75.65;101380.47;5032553;28;20972;-72
2023/05/24 05:07:00;;;;;;;12.37;2.23;;;;;;;11.66;75.84;101386.47;5032514;28;20573;-72
2023/05/24 05:09:27;;;;;;;8.40;2.13;;;;;;;11.68;74.85;101392.41;5032695;28;20526;-71
2023/05/24 05:11:55;;;;;;;8.00;1.77;;;;;;;11.60;75.39;101391.94;5033195;28;20810;-71
2023/05/24 05:14:21;;;;;;;11.37;2.23;;;;;;;11.46;76.46;101392.91;5032719;28;20463;-71
2023/05/24 05:16:48;;;;;;;7.00;2.20;;;;;;;11.54;76.75;101389.56;5032837;28;20434;-71
2023/05/24 05:19:14;;;;;;;14.10;2.87;;;;;;;11.62;76.75;101391.66;5032576;28;20431;-71
2023/05/24 05:21:41;;;;;;;22.03;2.50;;;;;;;11.67;76.77;101390.78;5032772;28;20553;-71
2023/05/24 05:24:08;;;;;;;16.13;2.50;;;;;;;11.65;76.31;101393.81;5032787;28;20490;-71
2023/05/24 05:26:35;;;;;;;13.70;2.60;;;;;;;11.68;75.50;101392.41;5032681;28;20519;-70
2023/05/24 05:29:03;;;;;;;11.00;2.70;;;;;;;11.59;76.34;101398.44;5032392;28;20928;-70
2023/05/24 05:31:30;;;;;;;11.40;2.70;;;;;;;11.56;77.19;101398.25;5032342;28;20478;-71
2023/05/24 05:33:56;;;;;;;11.90;2.60;;;;;;;11.66;76.89;101405.47;5034996;28;20525;-71
2023/05/24 05:36:23;;;;;;;11.10;2.77;;;;;;;11.63;77.78;101401.41;5036125;28;20439;-71
2023/05/24 05:38:49;;;;;;;11.43;3.23;;;;;;;11.67;77.50;101405.16;5036068;28;20533;-70
2023/05/24 05:41:16;;;;;;;15.10;2.77;;;;;;;11.76;77.39;101403.44;5035746;28;20944;-70
2023/05/24 05:43:43;;;;;;;7.87;1.77;;;;;;;11.81;76.79;101410.72;5035737;28;20447;-72
2023/05/24 05:46:13;;;;;;;10.20;2.20;;;;;;;11.73;76.91;101414.88;5035852;28;20471;-70
2023/05/24 05:48:40;;;;;;;8.17;2.60;;;;;;;11.65;77.77;101414.72;5035886;28;20434;-70
2023/05/24 05:51:07;;;;;;;8.10;2.40;;;;;;;11.63;78.67;101410.34;5035830;28;20479;-70
2023/05/24 05:53:33;;;;;;;13.20;3.13;;;;;;;11.71;78.20;101422.50;5035319;28;21016;-71
2023/05/24 05:56:00;;;;;;;10.67;2.90;;;;;;;11.77;78.34;101425.94;5035444;28;20447;-71
2023/05/24 05:58:27;;;;;;;10.50;2.30;;;;;;;11.80;77.86;101431.63;5035807;28;20453;-70
2023/05/24 06:00:53;;;;;;;8.23;2.20;;;;;;;11.78;78.80;101431.13;5035425;28;21043;-70
2023/05/24 06:03:21;;;;;;;14.60;2.00;;;;;;;11.82;79.55;101426.75;5035651;28;20447;-71
2023/05/24 06:05:48;;;;;;;14.80;3.10;;;;;;;11.93;78.39;101422.00;5035497;28;20573;-70
2023/05/24 06:08:14;;;;;;;10.03;1.93;;;;;;;11.98;77.17;101434.72;5035240;28;20439;-72
2023/05/24 06:10:41;;;;;;;8.93;2.40;;;;;;;11.94;77.29;101445.34;5035172;28;20943;-70
2023/05/24 06:13:07;;;;;;;9.83;2.50;;;;;;;11.92;77.56;101438.59;5035771;28;20834;-71
2023/05/24 06:15:34;;;;;;;10.83;2.33;;;;;;;11.83;78.67;101450.09;5035646;28;20845;-72
2023/05/24 06:18:01;;;;;;;10.50;1.83;;;;;;;11.91;79.02;101450.53;5035415;28;21010;-71
2023/05/24 06:20:29;;;;;;;6.23;1.63;;;;;;;12.01;78.77;101459.38;5035150;28;20450;-71
2023/05/24 06:22:56;;;;;;;9.23;2.40;;;;;;;11.99;79.44;101455.34;5035272;28;20498;-73
2023/05/24 06:25:23;;;;;;;8.73;2.03;;;;;;;12.04;79.22;101447.13;5035273;28;20531;-68
2023/05/24 06:27:50;;;;;;;14.33;2.40;;;;;;;12.08;77.19;101450.88;5035135;28;20483;-70
2023/05/24 06:30:17;;;;;;;12.80;2.40;;;;;;;12.07;77.48;101460.13;5035228;28;20459;-70
2023/05/24 06:32:43;;;;;;;7.50;2.30;;;;;;;12.12;78.05;101454.63;5035238;28;20533;-71
2023/05/24 06:35:10;;;;;;;8.13;2.63;;;;;;;12.22;77.64;101459.97;5035448;28;20541;-72
2023/05/24 06:37:38;;;;;;;18.13;3.20;;;;;;;12.18;78.10;101458.94;5035181;28;20442;-72
2023/05/24 06:40:07;;;;;;;10.97;3.00;;;;;;;12.22;77.29;101454.53;5035514;28;20446;-69
2023/05/24 06:42:35;;;;;;;9.33;2.20;;;;;;;12.16;77.17;101466.53;5035284;28;20455;-71
2023/05/24 06:45:02;;;;;;;15.57;3.00;;;;;;;12.15;77.41;101459.50;5034063;28;20555;-72
2023/05/24 06:47:28;;;;;;;16.63;2.40;;;;;;;12.09;78.29;101466.09;5035025;28;20834;-69
2023/05/24 06:49:55;;;;;;;9.67;2.37;;;;;;;12.03;78.92;101467.25;5035171;28;20439;-69
2023/05/24 06:52:22;;;;;;;10.73;2.40;;;;;;;12.11;78.29;101472.03;5034775;28;20932;-69
2023/05/24 06:54:50;;;;;;;6.90;2.20;;;;;;;12.11;78.42;101474.75;5035111;28;20491;-70
2023/05/24 06:57:17;;;;;;;7.17;2.50;;;;;;;12.20;78.71;101478.44;5034744;28;20952;-70
2023/05/24 06:59:44;;;;;;;20.20;3.70;;;;;;;12.27;78.24;101478.13;5034879;28;20522;-69
2023/05/24 07:02:10;;;;;;;16.73;3.20;;;;;;;12.35;78.23;101478.28;5035097;28;20819;-70
2023/05/24 07:04:39;;;;;;;13.80;3.10;;;;;;;12.40;78.51;101476.59;5034846;28;20849;-71
2023/05/24 07:07:07;;;;;;;12.37;2.60;;;;;;;12.52;78.37;101479.69;5034856;28;20490;-69
2023/05/24 07:09:34;;;;;;;7.27;2.57;;;;;;;12.71;76.87;101482.44;5034681;28;20470;-71
2023/05/24 07:12:02;;;;;;;7.63;2.20;;;;;;;12.78;76.56;101480.16;5034680;28;20451;-70
2023/05/24 07:14:29;;;;;;;12.87;3.53;;;;;;;12.83;76.13;101489.03;5034064;28;20499;-70
2023/05/24 07:16:58;;;;;;;8.73;2.10;;;;;;;12.86;75.71;101483.00;5034178;28;20444;-71
2023/05/24 07:19:27;;;;;;;9.40;2.17;;;;;;;12.90;76.13;101490.59;5034268;28;20454;-71
2023/05/24 07:21:54;;;;;;;13.00;2.67;;;;;;;12.90;75.35;101490.59;5034211;28;20443;-70
2023/05/24 07:24:22;;;;;;;16.27;2.80;;;;;;;12.94;75.81;101497.06;5033984;28;21031;-70
2023/05/24 07:26:49;;;;;;;12.90;2.90;;;;;;;12.94;75.90;101507.94;5034053;28;20518;-70
2023/05/24 07:29:17;;;;;;;9.37;2.50;;;;;;;12.98;75.06;101498.09;5034186;28;20447;-68
2023/05/24 07:31:43;;;;;;;18.73;2.83;;;;;;;13.00;75.83;101506.75;5033859;28;20443;-70
2023/05/24 07:34:10;;;;;;;16.60;2.57;;;;;;;13.00;76.07;101514.91;5033609;28;20470;-71
2023/05/24 07:36:37;;;;;;;7.90;2.50;;;;;;;13.00;75.48;101514.91;5034273;28;20550;-70
2023/05/24 07:39:05;;;;;;;17.67;3.20;;;;;;;13.02;76.15;101510.81;5034876;28;20490;-70
2023/05/24 07:41:32;;;;;;;17.90;2.80;;;;;;;13.11;76.13;101513.66;5033927;28;20456;-70
2023/05/24 07:43:58;;;;;;;7.73;2.73;;;;;;;13.24;76.08;101512.97;5033509;28;20475;-69
2023/05/24 07:46:26;;;;;;;11.20;2.87;;;;;;;13.35;74.93;101514.41;5033522;28;21035;-69
2023/05/24 07:48:53;;;;;;;12.07;2.50;;;;;;;13.47;74.51;101521.31;5033586;28;20988;-70
2023/05/24 07:51:20;;;;;;;11.63;3.03;;;;;;;13.50;73.81;101520.69;5033559;28;20474;-72
2023/05/24 07:53:47;;;;;;;16.23;3.10;;;;;;;13.45;74.61;101524.31;5033589;28;20820;-70
2023/05/24 07:56:13;;;;;;;13.50;2.80;;;;;;;13.45;74.62;101527.03;5033032;28;20477;-71
2023/05/24 07:58:41;;;;;;;15.03;2.93;;;;;;;13.41;74.13;101526.00;5033556;28;20455;-71
2023/05/24 08:01:08;;;;;;;12.67;3.73;;;;;;;13.40;73.57;101531.75;5033221;28;20453;-71
2023/05/24 08:03:36;;;;;;;12.83;3.50;;;;;;;13.40;74.97;101531.75;5033453;28;20442;-72
2023/05/24 08:06:03;;;;;;;8.33;2.50;;;;;;;13.45;74.53;101539.81;5033246;28;20941;-71
2023/05/24 08:08:30;;;;;;;7.43;2.20;;;;;;;13.46;73.33;101536.00;5033178;28;20447;-71
2023/05/24 08:10:56;;;;;;;9.03;2.50;;;;;;;13.48;73.37;101534.59;5033307;28;20439;-71
2023/05/24 08:13:23;;;;;;;8.23;2.27;;;;;;;13.38;74.18;101534.78;5033421;28;20439;-71
2023/05/24 08:15:50;;;;;;;9.93;2.60;;;;;;;13.45;74.97;101539.81;5033367;28;20546;-71
2023/05/24 08:18:16;;;;;;;10.20;2.50;;;;;;;13.54;74.29;101538.84;5033329;28;20498;-71
2023/05/24 08:20:44;;;;;;;13.23;3.80;;;;;;;13.56;73.53;101539.38;5032946;28;20475;-70
2023/05/24 08:23:11;;;;;;;7.80;2.60;;;;;;;13.50;74.42;101546.03;5033289;28;20443;-72
2023/05/24 08:25:38;;;;;;;14.67;3.57;;;;;;;13.42;74.97;101540.44;5033503;28;20497;-71
2023/05/24 08:28:05;;;;;;;12.07;3.40;;;;;;;13.35;75.88;101546.25;5033536;28;20482;-71
2023/05/24 08:30:32;;;;;;;17.33;2.73;;;;;;;13.32;75.59;101542.19;5033527;28;20538;-70
2023/05/24 08:32:58;;;;;;;9.70;2.80;;;;;;;13.23;75.21;101543.16;5033231;28;20442;-71
2023/05/24 08:35:25;;;;;;;11.30;2.90;;;;;;;13.25;75.80;101549.94;5032895;28;20906;-71
2023/05/24 08:37:53;;;;;;;14.30;3.60;;;;;;;13.27;74.96;101544.19;5033284;28;20828;-72
2023/05/24 08:40:20;;;;;;;8.33;2.67;;;;;;;13.09;75.64;101548.50;5032941;28;20449;-71
2023/05/24 08:42:48;;;;;;;16.43;2.97;;;;;;;13.10;76.25;101556.38;5032897;28;20450;-71
2023/05/24 08:45:16;;;;;;;15.20;2.30;;;;;;;13.19;76.23;101561.16;5033305;28;20581;-71
2023/05/24 08:47:43;;;;;;;15.43;3.13;;;;;;;13.26;75.50;101557.00;5033137;28;20475;-71
2023/05/24 08:50:11;;;;;;;18.63;2.43;;;;;;;13.33;74.33;101553.91;5032921;28;21031;-71
2023/05/24 08:52:39;;;;;;;11.27;3.20;;;;;;;13.28;74.96;101557.53;5033065;28;20820;-72
2023/05/24 08:55:09;;;;;;;8.43;2.73;;;;;;;13.38;76.13;101562.00;5032944;28;20888;-70
2023/05/24 08:57:38;;;;;;;9.10;2.70;;;;;;;13.55;75.12;101561.47;5033051;28;20896;-72
2023/05/24 09:00:08;;;;;;;12.27;2.73;;;;;;;13.70;73.30;101566.66;5032991;28;20436;-71
2023/05/24 09:02:35;;;;;;;10.90;2.60;;;;;;;13.71;72.47;101570.97;5033114;28;20530;-73
2023/05/24 09:05:03;;;;;;;16.53;2.60;;;;;;;13.73;70.94;101574.22;5032834;28;20984;-72
2023/05/24 09:07:30;;;;;;;7.00;2.43;;;;;;;13.72;70.72;101571.78;5019280;28;20498;-73
2023/05/24 09:09:58;;;;;;;8.40;2.20;;;;;;;13.68;71.51;101574.31;5017051;28;20526;-71
2023/05/24 09:12:30;;;;;;;12.90;2.50;;;;;;;13.61;72.28;101577.41;5016935;28;20447;-71
2023/05/24 09:14:57;;;;;;;14.63;2.60;;;;;;;13.54;72.82;101581.59;5016766;28;20468;-71
2023/05/24 09:17:24;;;;;;;15.63;3.47;;;;;;;13.40;73.19;101572.56;5016973;28;20471;-71
2023/05/24 09:19:52;;;;;;;7.37;2.30;;;;;;;13.24;74.27;101582.91;5016714;28;20452;-71
2023/05/24 09:22:22;;;;;;;7.83;2.43;;;;;;;13.20;74.54;101577.19;5016954;28;20452;-72
2023/05/24 09:24:49;;;;;;;14.73;2.73;;;;;;;13.24;75.47;101578.25;5016752;28;20467;-72
2023/05/24 09:27:17;;;;;;;8.50;2.90;;;;;;;13.38;74.89;101579.13;5016373;28;20847;-72
2023/05/24 09:29:47;;;;;;;10.03;2.67;;;;;;;13.42;75.07;101584.00;5015987;28;20957;-73
2023/05/24 09:32:14;;;;;;;7.63;2.50;;;;;;;13.60;75.19;101573.06;5016998;28;20499;-71
2023/05/24 09:34:41;;;;;;;6.27;1.70;;;;;;;13.74;73.86;101572.31;5016135;28;20480;-73
2023/05/24 09:37:15;;;;;;;9.23;1.90;;;;;;;13.95;74.80;101578.22;5017422;28;20440;-72
2023/05/24 09:39:42;;;;;;;9.57;3.13;;;;;;;14.09;71.56;101577.13;5016492;28;20428;-72
2023/05/24 09:42:14;;;;;;;9.77;2.60;;;;;;;14.29;70.29;101586.84;5016432;28;20447;-72
2023/05/24 09:44:41;;;;;;;7.27;1.90;;;;;;;14.46;69.36;101577.25;5016160;28;20475;-71
2023/05/24 09:47:11;;;;;;;6.77;1.60;;;;;;;14.59;68.01;101579.22;5015932;28;20523;-73
2023/05/24 09:49:38;;;;;;;8.80;2.00;;;;;;;14.60;66.76;101575.38;5016202;28;20452;-72
2023/05/24 09:52:05;;;;;;;5.67;1.80;;;;;;;14.72;67.14;101574.88;5016279;28;20444;-71
2023/05/24 09:54:32;;;;;;;11.30;2.33;;;;;;;14.93;65.68;101578.78;5015730;28;20470;-72
2023/05/24 09:57:00;;;;;;;8.13;2.13;;;;;;;15.08;65.58;101572.97;5016197;28;20863;-72
2023/05/24 09:59:27;;;;;;;15.70;2.37;;;;;;;15.06;66.00;101571.69;5016383;28;20537;-70
2023/05/24 10:02:09;;;;;;;9.57;2.80;;;;;;;15.00;66.04;101573.69;5022386;28;20550;-71
2023/05/24 10:04:37;;;;;;;7.40;1.87;;;;;;;14.72;67.32;101572.94;5035819;28;20474;-72
2023/05/24 10:07:04;;;;;;;14.50;2.00;;;;;;;14.93;67.71;101572.53;5035373;28;20513;-68
2023/05/24 10:09:33;;;;;;;11.20;2.20;;;;;;;15.16;66.57;101574.19;5035535;28;20446;-71
2023/05/24 10:12:03;;;;;;;7.30;2.10;;;;;;;15.43;64.25;101583.41;5035289;28;20478;-70
2023/05/24 10:14:32;;;;;;;8.50;2.07;;;;;;;15.68;63.70;101582.03;5035313;28;20521;-70
2023/05/24 10:16:59;;;;;;;6.90;1.53;;;;;;;15.62;61.46;101584.81;5035749;28;20832;-71
2023/05/24 10:19:26;;;;;;;6.13;2.00;;;;;;;15.67;62.60;101578.50;5034413;28;20928;-71
2023/05/24 10:21:56;;;;;;;5.57;1.77;;;;;;;15.72;60.93;101574.81;5035635;28;21031;-71
2023/05/24 10:24:26;;;;;;;5.00;1.37;;;;;;;15.72;61.99;101589.28;5038617;28;20566;-70
2023/05/24 10:26:54;;;;;;;11.37;2.63;;;;;;;15.66;61.67;101586.97;5038273;28;20896;-70
2023/05/24 10:29:31;;;;;;;5.50;1.53;;;;;;;15.48;61.08;101594.19;5036908;28;20493;-71
2023/05/24 10:31:59;;;;;;;7.30;1.70;;;;;;;15.38;60.50;101589.78;5035562;28;20435;-70
2023/05/24 10:34:26;;;;;;;7.57;1.77;;;;;;;15.61;60.41;101598.81;5035121;28;20467;-71
2023/05/24 10:36:54;;;;;;;6.63;1.90;;;;;;;15.82;58.61;101591.75;5035194;28;21021;-70
2023/05/24 10:39:22;;;;;;;5.50;1.40;;;;;;;15.96;59.34;101593.59;5035188;28;20432;-70
2023/05/24 10:41:49;;;;;;;8.33;1.73;;;;;;;15.99;58.07;101593.00;5035504;28;20454;-71
2023/05/24 10:44:19;;;;;;;6.53;1.90;;;;;;;16.11;58.51;101598.66;5034947;28;20514;-71
2023/05/24 10:47:08;;;;;;;4.90;1.20;;;;;;;15.94;58.22;101601.28;5034882;28;20442;-71
2023/05/24 10:49:35;;;;;;;10.00;1.80;;;;;;;16.25;57.55;101598.59;5034811;28;20490;-71
2023/05/24 10:52:07;;;;;;;5.40;1.40;;;;;;;16.31;57.01;101600.06;5035087;28;20524;-71
2023/05/24 10:54:34;;;;;;;8.93;1.53;;;;;;;16.34;57.25;101604.91;5036084;28;20506;-73
2023/05/24 10:57:03;;;;;;;5.80;1.47;;;;;;;16.36;56.98;101599.91;5035127;28;20439;-70
2023/05/24 10:59:36;;;;;;;6.80;2.00;;;;;;;16.38;56.72;101600.44;5035739;28;20542;-71
2023/05/24 11:02:04;;;;;;;6.50;1.53;;;;;;;16.49;57.47;101609.16;5034976;28;20454;-73
2023/05/24 11:04:33;;;;;;;8.87;1.83;;;;;;;16.34;56.13;101602.19;5034685;28;20487;-73
2023/05/24 11:07:04;;;;;;;5.10;1.47;;;;;;;16.27;57.42;101599.06;5034433;28;20451;-70
2023/05/24 11:09:31;;;;;;;5.47;1.60;;;;;;;16.20;58.57;101604.97;5034733;28;20944;-71
2023/05/24 11:12:02;;;;;;;9.10;2.00;;;;;;;16.05;58.32;101598.00;5034671;28;20443;-71
2023/05/24 11:14:30;;;;;;;6.57;1.23;;;;;;;15.72;60.33;101605.69;5034200;28;20527;-71
2023/05/24 11:16:58;;;;;;;4.90;1.27;;;;;;;15.59;62.24;101598.31;5034476;28;20451;-71
2023/05/24 11:19:31;;;;;;;8.20;1.37;;;;;;;15.34;62.79;101600.50;5034471;28;20525;-71
2023/05/24 11:21:58;;;;;;;6.57;1.80;;;;;;;15.21;63.43;101595.91;5034786;28;20502;-72
2023/05/24 11:24:27;;;;;;;5.20;1.27;;;;;;;15.21;63.33;101603.28;5034353;28;20502;-70
2023/05/24 11:26:55;;;;;;;7.30;2.10;;;;;;;15.28;63.59;101604.50;5033495;28;20505;-70